Time;durP1;ratioP1;P1;durP2;ratioP2;P2;SDS_P1;SDS_P2;PMS_P1;PMS_P2;Temp;Humidity;BMP_temperature;BMP_pressure;BME280_temperature;BME280_humidity;BME280_pressure;Samples;Min_cycle;Max_cycle;Signal;HPM_P1;HPM_P2
2022/09/22 00:00:19;;;;;;;10.47;8.93;;;4.10;99.90;;;;;;5115447;28;20205;-77
2022/09/22 00:02:45;;;;;;;12.97;9.77;;;4.00;99.90;;;;;;5115764;28;20220;-77
2022/09/22 00:05:13;;;;;;;11.03;8.83;;;4.00;99.90;;;;;;5115568;28;20206;-77
2022/09/22 00:07:39;;;;;;;12.73;9.60;;;3.90;99.90;;;;;;5115227;28;20256;-78
2022/09/22 00:10:06;;;;;;;12.20;10.73;;;3.90;99.90;;;;;;5115565;28;20247;-77
2022/09/22 00:12:34;;;;;;;11.83;10.47;;;4.00;99.90;;;;;;5115323;28;20709;-77
2022/09/22 00:15:01;;;;;;;11.87;9.60;;;3.90;99.90;;;;;;5115569;28;20201;-77
2022/09/22 00:17:30;;;;;;;11.63;9.53;;;3.80;99.90;;;;;;5113684;28;20230;-77
2022/09/22 00:19:57;;;;;;;11.53;9.17;;;3.80;99.90;;;;;;5114653;28;20561;-77
2022/09/22 00:22:24;;;;;;;13.60;10.03;;;3.70;99.90;;;;;;5114713;28;20219;-77
2022/09/22 00:24:51;;;;;;;11.37;8.70;;;3.80;99.90;;;;;;5114912;28;20224;-78
2022/09/22 00:27:18;;;;;;;12.23;9.33;;;3.80;99.90;;;;;;5114462;28;20725;-77
2022/09/22 00:29:44;;;;;;;10.90;9.13;;;3.80;99.90;;;;;;5114695;28;20198;-77
2022/09/22 00:32:12;;;;;;;11.30;10.10;;;3.70;99.90;;;;;;5114713;28;20250;-77
2022/09/22 00:34:40;;;;;;;12.53;9.97;;;3.70;99.90;;;;;;5114789;28;20250;-77
2022/09/22 00:37:06;;;;;;;11.60;9.90;;;3.70;99.90;;;;;;5114818;28;20248;-77
2022/09/22 00:39:33;;;;;;;14.20;9.83;;;3.60;99.90;;;;;;5114273;28;20201;-77
2022/09/22 00:42:00;;;;;;;12.80;10.67;;;3.60;99.90;;;;;;5113910;28;20656;-77
2022/09/22 00:44:38;;;;;;;14.43;11.53;;;3.60;99.90;;;;;;5114092;28;20260;-77
2022/09/22 00:47:24;;;;;;;18.17;11.90;;;3.60;99.90;;;;;;5113893;28;20295;-77
2022/09/22 00:49:56;;;;;;;15.90;10.83;;;3.50;99.90;;;;;;5114055;28;20204;-77
2022/09/22 00:52:30;;;;;;;14.37;10.00;;;3.50;99.90;;;;;;5114280;28;20198;-77
2022/09/22 00:55:03;;;;;;;12.77;10.10;;;3.50;99.90;;;;;;5114293;28;20243;-77
2022/09/22 00:57:33;;;;;;;15.53;10.40;;;3.50;99.90;;;;;;5114369;28;20241;-77
2022/09/22 01:00:01;;;;;;;12.23;10.00;;;3.40;99.90;;;;;;5114594;28;20194;-77
2022/09/22 01:02:27;;;;;;;12.63;9.77;;;3.30;99.90;;;;;;5114297;28;20201;-77
2022/09/22 01:04:55;;;;;;;11.83;9.60;;;3.30;99.90;;;;;;5113985;28;20725;-77
2022/09/22 01:07:24;;;;;;;14.30;10.17;;;3.30;99.90;;;;;;5114005;28;20220;-77
2022/09/22 01:09:51;;;;;;;13.57;10.40;;;3.30;99.90;;;;;;5114051;28;20200;-77
2022/09/22 01:12:19;;;;;;;15.83;9.60;;;3.20;99.90;;;;;;5114176;28;20195;-77
2022/09/22 01:15:06;;;;;;;14.60;10.50;;;3.20;99.90;;;;;;5114109;28;20637;-77
2022/09/22 01:17:40;;;;;;;12.53;9.60;;;3.20;99.90;;;;;;5114271;28;20199;-77
2022/09/22 01:20:53;;;;;;;12.97;9.90;;;3.30;99.90;;;;;;5114577;28;20200;-77
2022/09/22 01:23:52;;;;;;;13.47;9.90;;;3.30;99.90;;;;;;5113902;28;20202;-77
2022/09/22 01:26:38;;;;;;;12.33;8.80;;;3.20;99.90;;;;;;5113719;28;20215;-77
2022/09/22 01:29:45;;;;;;;12.33;10.20;;;3.20;99.90;;;;;;5114868;28;20636;-77
2022/09/22 01:32:18;;;;;;;11.87;9.60;;;3.20;99.90;;;;;;5117948;28;20248;-77
2022/09/22 01:34:51;;;;;;;18.50;9.63;;;3.20;99.90;;;;;;5118077;28;20199;-77
2022/09/22 01:37:24;;;;;;;10.03;8.03;;;3.20;99.90;;;;;;5117595;28;20561;-77
2022/09/22 01:39:55;;;;;;;12.37;9.87;;;3.20;99.90;;;;;;5117958;28;20195;-77
2022/09/22 01:42:27;;;;;;;16.43;9.37;;;3.20;99.90;;;;;;5117804;28;20203;-77
2022/09/22 01:44:58;;;;;;;15.13;10.10;;;3.30;99.90;;;;;;5118093;28;20197;-77
2022/09/22 01:47:33;;;;;;;12.07;9.43;;;3.20;99.90;;;;;;5117755;28;20219;-77
2022/09/22 01:50:07;;;;;;;11.63;9.10;;;3.20;99.90;;;;;;5117788;28;20191;-77
2022/09/22 01:52:36;;;;;;;13.73;9.43;;;3.20;99.90;;;;;;5117691;28;20379;-77
2022/09/22 01:55:06;;;;;;;15.00;10.27;;;3.20;99.90;;;;;;5117514;28;20599;-78
2022/09/22 01:57:40;;;;;;;14.73;10.77;;;3.20;99.90;;;;;;5117475;28;20601;-77
2022/09/22 02:00:10;;;;;;;13.83;10.60;;;3.10;99.90;;;;;;5117145;28;20256;-77
2022/09/22 02:02:42;;;;;;;15.33;11.10;;;3.10;99.90;;;;;;5117367;28;20253;-77
2022/09/22 02:05:14;;;;;;;16.13;12.30;;;3.10;99.90;;;;;;5117628;28;20192;-77
2022/09/22 02:07:45;;;;;;;15.97;10.83;;;3.10;99.90;;;;;;5117489;27;20231;-77
2022/09/22 02:10:16;;;;;;;14.50;11.77;;;3.20;99.90;;;;;;5117982;28;20606;-77
2022/09/22 02:12:43;;;;;;;16.27;10.77;;;3.20;99.90;;;;;;5117170;28;20196;-77
2022/09/22 02:15:58;;;;;;;15.93;11.23;;;3.10;99.90;;;;;;5117443;28;20202;-78
2022/09/22 02:18:13;;;;;;;11.87;9.53;;;3.00;99.90;;;;;;5116884;28;20203;-77
2022/09/22 02:20:40;;;;;;;14.73;10.07;;;3.00;99.90;;;;;;5117351;28;20199;-77
2022/09/22 02:23:08;;;;;;;14.67;10.47;;;2.90;99.90;;;;;;5116623;28;20228;-77
2022/09/22 02:25:36;;;;;;;12.80;10.37;;;2.90;99.90;;;;;;5117163;27;20192;-77
2022/09/22 02:28:02;;;;;;;16.90;12.20;;;2.90;99.90;;;;;;5117018;28;20227;-77
2022/09/22 02:30:29;;;;;;;13.90;10.87;;;2.90;99.90;;;;;;5117038;28;20602;-77
2022/09/22 02:32:59;;;;;;;11.63;9.60;;;2.80;99.90;;;;;;5117350;28;20200;-76
2022/09/22 02:35:29;;;;;;;12.03;9.67;;;2.80;99.90;;;;;;5117097;28;20200;-76
2022/09/22 02:38:02;;;;;;;13.80;10.43;;;2.80;99.90;;;;;;5116926;28;20209;-76
2022/09/22 02:40:37;;;;;;;15.57;11.50;;;2.80;99.90;;;;;;5115881;28;20200;-76
2022/09/22 02:43:09;;;;;;;14.20;10.73;;;2.80;99.90;;;;;;5117016;28;20249;-76
2022/09/22 02:45:43;;;;;;;14.17;11.20;;;2.80;99.90;;;;;;5116608;28;20261;-76
2022/09/22 02:48:17;;;;;;;14.23;9.90;;;2.80;99.90;;;;;;5116345;28;20220;-76
2022/09/22 02:50:44;;;;;;;16.83;11.17;;;2.90;99.90;;;;;;5116522;28;20195;-76
2022/09/22 02:53:13;;;;;;;15.07;11.63;;;2.80;99.90;;;;;;5116900;28;20195;-75
2022/09/22 02:55:41;;;;;;;15.83;10.90;;;2.80;99.90;;;;;;5116543;28;20245;-76
2022/09/22 02:58:08;;;;;;;13.60;10.37;;;2.60;99.90;;;;;;5116505;28;20245;-76
2022/09/22 03:00:36;;;;;;;18.13;11.10;;;2.60;99.90;;;;;;5116589;28;20221;-76
2022/09/22 03:03:03;;;;;;;13.57;10.63;;;2.60;99.90;;;;;;5116722;28;20613;-76
2022/09/22 03:05:31;;;;;;;12.33;9.97;;;2.60;99.90;;;;;;5116787;28;20605;-76
2022/09/22 03:07:57;;;;;;;15.73;10.13;;;2.50;99.90;;;;;;5116544;27;20297;-76
2022/09/22 03:10:24;;;;;;;14.50;10.07;;;2.50;99.90;;;;;;5116617;28;20715;-76
2022/09/22 03:12:51;;;;;;;12.87;10.27;;;2.50;99.90;;;;;;5116278;28;20199;-75
2022/09/22 03:15:17;;;;;;;13.63;9.10;;;2.50;99.90;;;;;;5116086;28;20675;-75
2022/09/22 03:17:46;;;;;;;14.97;9.13;;;2.50;99.90;;;;;;5116144;28;20195;-75
2022/09/22 03:20:14;;;;;;;13.30;10.33;;;2.40;99.90;;;;;;5116051;28;20192;-76
2022/09/22 03:22:42;;;;;;;12.07;8.83;;;2.40;99.90;;;;;;5115687;28;20583;-76
2022/09/22 03:25:09;;;;;;;12.67;9.30;;;2.50;99.90;;;;;;5115656;28;20723;-75
2022/09/22 03:27:36;;;;;;;16.10;9.23;;;2.50;99.90;;;;;;5115478;28;20700;-76
2022/09/22 03:30:03;;;;;;;10.90;8.33;;;2.50;99.90;;;;;;5115891;28;20195;-76
2022/09/22 03:32:30;;;;;;;14.13;8.90;;;2.50;99.90;;;;;;5115305;28;20551;-75
2022/09/22 03:34:57;;;;;;;13.43;9.10;;;2.40;99.90;;;;;;5115175;28;20237;-76
2022/09/22 03:37:24;;;;;;;12.23;9.00;;;2.50;99.90;;;;;;5115198;28;20245;-76
2022/09/22 03:39:52;;;;;;;12.30;9.80;;;2.50;99.90;;;;;;5115267;28;20222;-76
2022/09/22 03:42:19;;;;;;;13.43;9.93;;;2.50;99.90;;;;;;5114792;28;20252;-76
2022/09/22 03:44:45;;;;;;;12.17;9.37;;;2.50;99.90;;;;;;5114958;28;20196;-76
2022/09/22 03:47:12;;;;;;;11.50;9.03;;;2.50;99.90;;;;;;5115296;28;20223;-75
2022/09/22 03:49:38;;;;;;;14.30;10.43;;;2.50;99.90;;;;;;5115293;28;20244;-75
2022/09/22 03:52:05;;;;;;;13.10;10.00;;;2.50;99.90;;;;;;5116391;28;20303;-76
2022/09/22 03:54:32;;;;;;;14.13;10.40;;;2.30;99.90;;;;;;5124503;28;20716;-76
2022/09/22 03:57:00;;;;;;;12.33;9.73;;;2.20;99.90;;;;;;5125520;28;20534;-76
2022/09/22 03:59:26;;;;;;;11.57;8.90;;;2.30;99.90;;;;;;5125190;28;20191;-76
2022/09/22 04:01:53;;;;;;;12.47;9.27;;;2.30;99.90;;;;;;5119245;28;20200;-76
2022/09/22 04:04:19;;;;;;;10.90;8.87;;;2.30;99.90;;;;;;5118197;28;20256;-75
2022/09/22 04:06:46;;;;;;;13.10;8.70;;;2.30;99.90;;;;;;5116960;28;20199;-76
2022/09/22 04:09:16;;;;;;;11.43;8.90;;;2.30;99.90;;;;;;5116763;27;20240;-75
2022/09/22 04:11:43;;;;;;;14.40;9.03;;;2.20;99.90;;;;;;5116583;28;20195;-76
2022/09/22 04:14:11;;;;;;;12.97;9.20;;;2.20;99.90;;;;;;5116169;28;20241;-75
2022/09/22 04:16:41;;;;;;;9.87;8.30;;;2.10;99.90;;;;;;5115863;28;20206;-76
2022/09/22 04:19:08;;;;;;;12.30;7.97;;;2.10;99.90;;;;;;5115816;28;20203;-76
2022/09/22 04:21:35;;;;;;;8.93;8.03;;;2.10;99.90;;;;;;5115156;28;20276;-76
2022/09/22 04:24:02;;;;;;;8.67;7.73;;;2.00;99.90;;;;;;5115727;28;20605;-76
2022/09/22 04:26:28;;;;;;;8.87;7.97;;;2.10;99.90;;;;;;5115553;28;20196;-76
2022/09/22 04:28:55;;;;;;;10.60;8.67;;;2.20;99.90;;;;;;5115494;28;20253;-76
2022/09/22 04:31:23;;;;;;;11.43;8.87;;;2.20;99.90;;;;;;5115317;28;20202;-75
2022/09/22 04:33:50;;;;;;;10.43;8.20;;;2.10;99.90;;;;;;5115564;28;20195;-75
2022/09/22 04:36:16;;;;;;;11.67;8.83;;;2.10;99.90;;;;;;5115298;28;20204;-75
2022/09/22 04:38:43;;;;;;;12.13;9.77;;;2.10;99.90;;;;;;5115043;28;20203;-75
2022/09/22 04:41:09;;;;;;;12.53;8.90;;;2.10;99.90;;;;;;5114633;28;20203;-75
2022/09/22 04:43:36;;;;;;;12.33;10.20;;;2.00;99.90;;;;;;5114773;28;20252;-75
2022/09/22 04:46:03;;;;;;;12.90;8.80;;;2.10;99.90;;;;;;5114585;28;20200;-75
2022/09/22 04:48:31;;;;;;;13.20;9.67;;;2.00;99.90;;;;;;5114239;28;20219;-75
2022/09/22 04:50:58;;;;;;;13.50;10.00;;;2.10;99.90;;;;;;5114379;28;20620;-75
2022/09/22 04:53:24;;;;;;;16.27;11.20;;;2.00;99.90;;;;;;5114681;28;20248;-76
2022/09/22 04:55:51;;;;;;;18.70;12.33;;;2.10;99.90;;;;;;5114543;28;20252;-75
2022/09/22 04:58:18;;;;;;;19.93;13.40;;;2.00;99.90;;;;;;5114256;28;20202;-75
2022/09/22 05:00:44;;;;;;;17.03;12.20;;;2.00;99.90;;;;;;5114253;28;20199;-76
2022/09/22 05:03:12;;;;;;;21.07;13.30;;;2.00;99.90;;;;;;5114401;28;20248;-76
2022/09/22 05:05:40;;;;;;;18.47;13.00;;;2.00;99.90;;;;;;5118103;28;20203;-76
2022/09/22 05:08:06;;;;;;;19.00;13.23;;;2.00;99.90;;;;;;5118124;28;20721;-75
2022/09/22 05:10:35;;;;;;;22.77;14.30;;;2.10;99.90;;;;;;5118713;28;20196;-76
2022/09/22 05:13:02;;;;;;;19.30;14.17;;;2.10;99.90;;;;;;5118535;28;20249;-75
2022/09/22 05:15:31;;;;;;;20.20;13.67;;;2.10;99.90;;;;;;5118760;28;20655;-76
2022/09/22 05:17:58;;;;;;;19.70;12.97;;;2.00;99.90;;;;;;5119179;28;20297;-75
2022/09/22 05:20:25;;;;;;;19.53;13.20;;;2.10;99.90;;;;;;5119037;28;20240;-75
2022/09/22 05:22:53;;;;;;;22.03;14.13;;;2.20;99.90;;;;;;5118663;28;20223;-76
2022/09/22 05:25:20;;;;;;;21.77;13.97;;;2.20;99.90;;;;;;5118637;28;20200;-75
2022/09/22 05:27:48;;;;;;;20.50;13.93;;;2.20;99.90;;;;;;5118968;28;20219;-76
2022/09/22 05:30:15;;;;;;;15.90;12.00;;;2.30;99.90;;;;;;5119121;28;20245;-76
2022/09/22 05:32:43;;;;;;;22.73;13.87;;;2.50;99.90;;;;;;5119438;27;20726;-75
2022/09/22 05:35:10;;;;;;;17.47;13.30;;;2.60;99.90;;;;;;5119310;28;20197;-76
2022/09/22 05:37:37;;;;;;;21.80;14.90;;;2.50;99.90;;;;;;5119486;28;20192;-76
2022/09/22 05:40:06;;;;;;;21.17;14.87;;;2.50;99.90;;;;;;5118826;28;20203;-75
2022/09/22 05:42:33;;;;;;;19.70;14.00;;;2.50;99.90;;;;;;5118745;28;20287;-75
2022/09/22 05:45:00;;;;;;;21.37;14.47;;;2.50;99.90;;;;;;5118882;28;20204;-75
2022/09/22 05:47:26;;;;;;;22.93;14.17;;;2.50;99.90;;;;;;5119660;28;20268;-76
2022/09/22 05:49:53;;;;;;;21.27;14.10;;;2.60;99.90;;;;;;5119352;28;20200;-76
2022/09/22 05:52:20;;;;;;;19.67;13.87;;;2.60;99.90;;;;;;5119011;28;20283;-76
2022/09/22 05:54:46;;;;;;;20.20;14.43;;;2.70;99.90;;;;;;5119123;28;20195;-75
2022/09/22 05:57:14;;;;;;;18.67;14.33;;;2.80;99.90;;;;;;5119094;28;20204;-75
2022/09/22 05:59:41;;;;;;;21.40;14.27;;;2.90;99.90;;;;;;5119097;28;20196;-75
2022/09/22 06:02:10;;;;;;;18.67;13.97;;;3.00;99.90;;;;;;5118532;28;20253;-75
2022/09/22 06:04:36;;;;;;;19.13;13.43;;;3.00;99.90;;;;;;5118442;27;20231;-76
2022/09/22 06:07:05;;;;;;;15.97;13.20;;;3.10;99.90;;;;;;5117443;28;20199;-76
2022/09/22 06:09:31;;;;;;;18.97;14.00;;;3.10;99.90;;;;;;5117414;27;20223;-76
2022/09/22 06:11:58;;;;;;;15.43;12.53;;;3.20;99.90;;;;;;5117969;28;20200;-75
2022/09/22 06:14:26;;;;;;;16.10;12.77;;;3.20;99.90;;;;;;5117697;28;20201;-76
2022/09/22 06:16:53;;;;;;;15.67;12.27;;;3.30;99.90;;;;;;5118251;28;20192;-76
2022/09/22 06:19:20;;;;;;;13.83;10.50;;;3.40;99.90;;;;;;5117834;28;20212;-76
2022/09/22 06:21:47;;;;;;;14.27;12.20;;;3.50;99.90;;;;;;5116562;28;20227;-76
2022/09/22 06:24:13;;;;;;;18.07;13.70;;;3.70;99.90;;;;;;5116384;28;20194;-75
2022/09/22 06:26:40;;;;;;;17.27;12.90;;;3.80;99.90;;;;;;5117170;28;20696;-75
2022/09/22 06:29:07;;;;;;;16.03;12.63;;;3.80;99.90;;;;;;5116380;28;20220;-75
2022/09/22 06:31:35;;;;;;;14.93;12.67;;;4.00;99.90;;;;;;5116446;28;20257;-75
2022/09/22 06:34:01;;;;;;;17.07;13.40;;;4.10;99.90;;;;;;5116288;28;20194;-76
2022/09/22 06:36:30;;;;;;;15.67;13.27;;;4.20;99.90;;;;;;5116429;28;20206;-75
2022/09/22 06:38:58;;;;;;;16.37;12.70;;;4.30;99.90;;;;;;5116204;28;20654;-76
2022/09/22 06:41:25;;;;;;;18.00;13.00;;;4.40;99.90;;;;;;5121882;28;20289;-76
2022/09/22 06:43:54;;;;;;;14.63;12.53;;;4.50;99.90;;;;;;5116518;28;20250;-75
2022/09/22 06:46:23;;;;;;;15.50;12.97;;;4.70;99.90;;;;;;5116152;28;20206;-76
2022/09/22 06:48:56;;;;;;;16.47;13.50;;;4.80;99.90;;;;;;5116030;28;20804;-77
2022/09/22 06:51:24;;;;;;;18.30;13.60;;;4.90;99.90;;;;;;5115564;28;20662;-75
2022/09/22 06:53:51;;;;;;;19.73;14.97;;;5.00;99.90;;;;;;5115389;28;20195;-77
2022/09/22 06:56:18;;;;;;;20.70;16.47;;;5.10;99.90;;;;;;5115542;28;20195;-77
2022/09/22 06:58:45;;;;;;;26.00;17.07;;;5.30;99.90;;;;;;5115473;28;20244;-77
2022/09/22 07:01:13;;;;;;;24.73;17.60;;;5.40;99.90;;;;;;5115455;28;20214;-77
2022/09/22 07:03:40;;;;;;;24.53;17.43;;;5.50;99.90;;;;;;5115523;28;20195;-75
2022/09/22 07:06:09;;;;;;;22.27;17.87;;;5.60;99.90;;;;;;5115421;28;20204;-75
2022/09/22 07:08:38;;;;;;;23.77;17.97;;;5.80;99.90;;;;;;5115431;27;20219;-75
2022/09/22 07:11:07;;;;;;;21.80;16.50;;;5.90;99.90;;;;;;5115126;27;20196;-75
2022/09/22 07:13:38;;;;;;;23.00;17.83;;;6.10;99.90;;;;;;5115149;28;20198;-75
2022/09/22 07:16:07;;;;;;;27.40;20.50;;;6.30;99.90;;;;;;5114997;27;20192;-75
2022/09/22 07:18:35;;;;;;;25.50;20.10;;;6.60;99.90;;;;;;5115021;28;20222;-75
2022/09/22 07:21:03;;;;;;;22.50;19.73;;;6.80;99.90;;;;;;5114549;28;20202;-75
2022/09/22 07:23:33;;;;;;;26.47;19.97;;;7.00;99.90;;;;;;5115005;28;20244;-75
2022/09/22 07:26:01;;;;;;;23.87;19.60;;;7.20;99.90;;;;;;5115224;28;20256;-74
2022/09/22 07:28:28;;;;;;;25.10;18.97;;;7.40;99.90;;;;;;5114550;28;20276;-75
2022/09/22 07:30:56;;;;;;;23.73;19.10;;;7.50;99.90;;;;;;5114814;28;20240;-75
2022/09/22 07:33:23;;;;;;;24.13;17.83;;;7.70;99.90;;;;;;5114563;28;20200;-75
2022/09/22 07:36:00;;;;;;;18.27;16.17;;;7.90;99.90;;;;;;5114840;28;20605;-75
2022/09/22 07:38:31;;;;;;;18.70;16.70;;;8.20;99.90;;;;;;5114611;28;20199;-75
2022/09/22 07:40:59;;;;;;;20.83;16.30;;;8.40;99.90;;;;;;5114560;28;20248;-75
2022/09/22 07:43:26;;;;;;;18.73;16.00;;;8.50;99.90;;;;;;5114403;28;20202;-76
2022/09/22 07:45:54;;;;;;;18.30;13.90;;;8.80;99.90;;;;;;5114167;28;20195;-76
2022/09/22 07:48:36;;;;;;;17.23;13.00;;;8.90;99.90;;;;;;5114319;28;20843;-75
2022/09/22 07:51:04;;;;;;;13.87;12.00;;;9.20;99.90;;;;;;5114552;28;20222;-75
2022/09/22 07:53:31;;;;;;;12.33;11.03;;;9.40;99.90;;;;;;5114234;28;20205;-76
2022/09/22 07:56:05;;;;;;;13.70;11.20;;;9.60;99.90;;;;;;5114405;28;20632;-75
2022/09/22 07:58:31;;;;;;;10.20;9.10;;;9.70;99.90;;;;;;5114094;28;20199;-75
2022/09/22 08:00:58;;;;;;;12.37;9.73;;;9.90;99.90;;;;;;5114046;28;20690;-75
2022/09/22 08:03:25;;;;;;;13.50;9.43;;;10.10;99.90;;;;;;5114105;28;20195;-77
2022/09/22 08:05:52;;;;;;;10.40;8.60;;;10.40;99.90;;;;;;5114129;28;20198;-75
2022/09/22 08:08:19;;;;;;;11.60;8.43;;;10.60;99.90;;;;;;5113981;28;20227;-76
2022/09/22 08:10:46;;;;;;;11.70;8.43;;;10.70;99.90;;;;;;5113878;28;20195;-75
2022/09/22 08:13:14;;;;;;;9.03;7.37;;;10.90;99.90;;;;;;5113749;28;20191;-76
2022/09/22 08:15:42;;;;;;;8.63;7.20;;;11.10;99.90;;;;;;5113894;28;20224;-76
2022/09/22 08:18:08;;;;;;;12.53;7.43;;;11.20;99.90;;;;;;5113708;28;20200;-76
2022/09/22 08:20:35;;;;;;;9.83;7.37;;;11.40;99.90;;;;;;5114013;28;20269;-75
2022/09/22 08:23:03;;;;;;;10.00;6.43;;;11.50;99.90;;;;;;5113352;28;20280;-76
2022/09/22 08:25:30;;;;;;;8.50;6.70;;;11.60;99.90;;;;;;5113420;28;20719;-75
2022/09/22 08:27:59;;;;;;;6.73;5.70;;;11.90;99.90;;;;;;5114008;28;20203;-75
2022/09/22 08:30:27;;;;;;;7.07;5.73;;;12.00;99.90;;;;;;5113236;28;20713;-75
2022/09/22 08:32:54;;;;;;;7.80;5.60;;;12.00;99.90;;;;;;5113592;28;20192;-77
2022/09/22 08:35:20;;;;;;;6.70;5.10;;;12.10;99.90;;;;;;5113917;28;20196;-77
2022/09/22 08:37:49;;;;;;;4.93;4.37;;;12.40;99.90;;;;;;5113489;28;20263;-76
2022/09/22 08:40:22;;;;;;;6.33;4.50;;;12.60;99.90;;;;;;5112555;28;20647;-77
2022/09/22 08:42:52;;;;;;;4.80;4.00;;;12.70;99.90;;;;;;5113469;28;20211;-77
2022/09/22 08:45:29;;;;;;;6.07;3.97;;;13.00;99.90;;;;;;5113448;28;20192;-77
2022/09/22 08:53:37;;;;;;;5.27;4.20;;;13.50;99.90;;;;;;5113117;28;20206;-77
2022/09/22 08:56:15;;;;;;;4.97;4.07;;;13.70;99.90;;;;;;5113214;28;20195;-77
2022/09/22 08:58:50;;;;;;;6.33;3.60;;;13.90;99.90;;;;;;5112963;28;20199;-77
2022/09/22 09:01:34;;;;;;;5.30;3.37;;;13.90;99.90;;;;;;5113257;28;20201;-77
2022/09/22 09:04:14;;;;;;;6.00;3.50;;;14.30;99.90;;;;;;5113009;28;20199;-77
2022/09/22 09:06:47;;;;;;;4.00;2.87;;;14.60;99.90;;;;;;5113007;28;20231;-77
2022/09/22 09:09:31;;;;;;;4.40;3.53;;;14.80;99.90;;;;;;5112715;28;20269;-77
2022/09/22 09:12:21;;;;;;;4.53;2.90;;;15.10;99.90;;;;;;5112902;28;20719;-78
2022/09/22 09:15:08;;;;;;;4.83;3.00;;;15.40;99.90;;;;;;5112774;28;20191;-78
2022/09/22 09:17:38;;;;;;;4.77;2.90;;;15.80;99.90;;;;;;5112949;28;20199;-78
2022/09/22 09:20:16;;;;;;;3.15;2.85;;;16.30;99.90;;;;;;5113021;28;20196;-78
2022/09/22 09:22:48;;;;;;;4.32;2.90;;;16.40;99.90;;;;;;5113021;28;20826;-78
2022/09/22 09:25:21;;;;;;;2.47;2.22;;;16.10;99.90;;;;;;5115598;28;20291;-78
2022/09/22 09:27:55;;;;;;;4.82;2.30;;;16.00;99.90;;;;;;5121640;28;20200;-78
2022/09/22 09:30:23;;;;;;;2.42;2.22;;;16.50;99.90;;;;;;5116312;28;20234;-78
2022/09/22 09:32:55;;;;;;;2.95;2.20;;;17.10;99.90;;;;;;5117172;28;20229;-78
2022/09/22 09:35:25;;;;;;;2.35;1.90;;;17.30;99.90;;;;;;5113230;28;20199;-77
2022/09/22 09:37:54;;;;;;;2.45;2.20;;;17.70;99.90;;;;;;5112782;28;20230;-78
2022/09/22 09:40:21;;;;;;;3.53;2.13;;;18.00;99.90;;;;;;5112525;28;20199;-78
2022/09/22 09:42:55;;;;;;;4.53;3.25;;;18.20;99.90;;;;;;5112608;28;20248;-78
2022/09/22 09:45:27;;;;;;;3.15;2.17;;;18.30;99.90;;;;;;5112989;28;20234;-78
2022/09/22 09:48:08;;;;;;;2.50;2.10;;;18.40;99.90;;;;;;5112815;28;20199;-78
2022/09/22 09:50:36;;;;;;;3.15;2.50;;;18.70;99.90;;;;;;5114365;28;20227;-78
2022/09/22 09:53:03;;;;;;;2.45;1.90;;;18.80;99.90;;;;;;5116414;28;20227;-78
2022/09/22 09:55:30;;;;;;;3.05;1.90;;;19.00;99.90;;;;;;5116339;28;20204;-78
2022/09/22 09:58:09;;;;;;;2.05;1.85;;;18.90;99.90;;;;;;5116569;28;20203;-79
2022/09/22 10:00:55;;;;;;;2.58;2.15;;;19.00;99.90;;;;;;5116405;28;20256;-78
2022/09/22 10:03:27;;;;;;;2.40;2.03;;;18.70;99.90;;;;;;5116200;28;20603;-78
2022/09/22 10:06:01;;;;;;;4.32;2.25;;;19.10;99.90;;;;;;5116572;28;20202;-78
2022/09/22 10:08:35;;;;;;;3.45;2.15;;;19.40;99.90;;;;;;5116561;28;20245;-78
2022/09/22 10:11:03;;;;;;;3.70;1.80;;;19.80;99.90;;;;;;5116253;28;20199;-78
2022/09/22 10:13:33;;;;;;;4.03;1.90;;;19.60;99.00;;;;;;5116544;28;20199;-79
2022/09/22 10:16:22;;;;;;;2.15;1.95;;;19.50;97.90;;;;;;5116149;28;20203;-78
2022/09/22 10:18:51;;;;;;;2.35;2.00;;;19.50;97.80;;;;;;5116361;28;20204;-78
2022/09/22 10:21:20;;;;;;;3.15;2.00;;;20.20;97.10;;;;;;5116257;28;20277;-79
2022/09/22 10:23:48;;;;;;;6.40;2.63;;;20.50;97.70;;;;;;5116535;28;20248;-79
2022/09/22 10:26:20;;;;;;;2.83;2.15;;;21.30;97.10;;;;;;5116123;28;20264;-77
2022/09/22 10:29:15;;;;;;;2.38;2.08;;;21.80;96.10;;;;;;5116200;28;20195;-76
2022/09/22 10:31:59;;;;;;;2.53;2.33;;;22.40;94.00;;;;;;5115928;28;20211;-79
2022/09/22 10:34:30;;;;;;;3.00;2.00;;;22.80;94.10;;;;;;5116370;28;20286;-79
2022/09/22 10:36:59;;;;;;;3.25;1.90;;;23.40;92.20;;;;;;5116574;28;20249;-79
2022/09/22 10:39:35;;;;;;;2.58;1.80;;;23.60;89.40;;;;;;5117164;28;20196;-78
2022/09/22 10:42:06;;;;;;;2.35;2.15;;;24.00;87.00;;;;;;5115631;28;20222;-79
2022/09/22 10:44:33;;;;;;;2.53;2.00;;;24.40;85.10;;;;;;5116830;28;20202;-79
2022/09/22 10:47:20;;;;;;;3.20;1.90;;;24.80;80.40;;;;;;5115886;28;20199;-78
2022/09/22 10:50:09;;;;;;;2.83;1.90;;;25.20;78.10;;;;;;5115203;28;20237;-78
2022/09/22 10:52:43;;;;;;;4.55;2.13;;;25.90;73.00;;;;;;5115365;28;20707;-78
2022/09/22 10:55:24;;;;;;;2.53;2.13;;;26.20;68.90;;;;;;5115318;28;20195;-78
2022/09/22 10:58:21;;;;;;;2.35;2.00;;;26.80;65.10;;;;;;5115552;28;20222;-78
2022/09/22 11:00:48;;;;;;;2.28;1.83;;;25.90;59.70;;;;;;5115180;28;20206;-78
2022/09/22 11:03:49;;;;;;;2.33;1.88;;;25.90;57.90;;;;;;5114426;28;20199;-77
2022/09/22 11:12:18;;;;;;;2.55;2.00;;;27.40;53.80;;;;;;5114987;28;20656;-78
2022/09/22 11:15:03;;;;;;;1.85;1.55;;;28.10;51.00;;;;;;5115256;28;20278;-78
2022/09/22 11:17:51;;;;;;;2.88;1.67;;;28.40;47.30;;;;;;5114761;28;20242;-78
2022/09/22 11:20:31;;;;;;;2.78;1.95;;;28.80;45.00;;;;;;5114847;28;20260;-78
2022/09/22 11:23:29;;;;;;;1.50;1.30;;;29.10;42.20;;;;;;5115002;28;20265;-79
2022/09/22 11:26:14;;;;;;;1.88;1.67;;;28.60;38.90;;;;;;5107253;28;20252;-78
2022/09/22 11:28:51;;;;;;;1.98;1.50;;;26.40;40.60;;;;;;5114969;28;20252;-78
2022/09/22 11:31:36;;;;;;;1.75;1.63;;;25.50;39.90;;;;;;5114816;28;20223;-78
2022/09/22 11:34:34;;;;;;;2.03;1.60;;;25.10;38.80;;;;;;5115078;28;20291;-78
2022/09/22 11:37:24;;;;;;;1.77;1.27;;;26.20;40.20;;;;;;5113986;28;20191;-78
2022/09/22 11:40:15;;;;;;;1.55;1.45;;;27.30;36.90;;;;;;5114870;28;20195;-78
2022/09/22 11:42:54;;;;;;;3.78;1.85;;;28.40;36.10;;;;;;5101795;28;20554;-78
2022/09/22 11:45:43;;;;;;;2.05;1.70;;;28.90;36.90;;;;;;5113388;28;20203;-78
2022/09/22 11:48:22;;;;;;;2.38;1.67;;;29.70;34.70;;;;;;5114778;28;20641;-78
2022/09/22 11:51:04;;;;;;;4.55;1.80;;;29.80;34.20;;;;;;5114458;28;20222;-78
2022/09/22 11:53:47;;;;;;;2.30;1.95;;;30.20;36.10;;;;;;5114695;28;20195;-78
2022/09/22 11:56:32;;;;;;;4.15;2.10;;;30.50;36.40;;;;;;5114573;28;20342;-79
2022/09/22 11:59:04;;;;;;;2.30;1.85;;;30.80;35.70;;;;;;5114462;28;20299;-78
2022/09/22 12:01:36;;;;;;;2.00;1.80;;;30.60;35.10;;;;;;5114412;28;20204;-78
2022/09/22 12:04:08;;;;;;;2.00;1.80;;;30.70;35.60;;;;;;5114461;28;20710;-79
2022/09/22 12:06:40;;;;;;;2.22;1.88;;;31.70;34.20;;;;;;5115045;28;20195;-78
2022/09/22 12:09:12;;;;;;;2.08;1.88;;;32.00;32.20;;;;;;5120290;28;20195;-77
2022/09/22 12:11:40;;;;;;;1.60;1.50;;;32.00;31.30;;;;;;5126752;27;20209;-78
2022/09/22 12:14:12;;;;;;;4.20;1.73;;;32.10;30.40;;;;;;5124996;28;20195;-78
2022/09/22 12:16:44;;;;;;;2.50;1.50;;;31.80;27.90;;;;;;5137690;28;20183;-78
2022/09/22 12:19:20;;;;;;;1.38;1.27;;;31.60;27.10;;;;;;5136525;28;20254;-78
2022/09/22 12:21:54;;;;;;;1.50;1.40;;;32.50;25.70;;;;;;5135726;28;20221;-78
2022/09/22 12:24:20;;;;;;;1.95;1.50;;;32.40;25.70;;;;;;5114943;28;20195;-78
2022/09/22 12:26:50;;;;;;;2.85;1.60;;;32.50;26.00;;;;;;5114000;28;20195;-76
2022/09/22 12:29:26;;;;;;;2.90;1.50;;;33.10;26.80;;;;;;5113902;28;20199;-77
2022/09/22 12:31:55;;;;;;;4.05;1.70;;;33.20;26.20;;;;;;5113848;28;20209;-77
2022/09/22 12:34:24;;;;;;;3.35;1.75;;;34.00;25.60;;;;;;5113646;28;20753;-77
2022/09/22 12:36:54;;;;;;;1.98;1.70;;;33.50;25.20;;;;;;5113882;28;20194;-77
2022/09/22 12:39:23;;;;;;;1.98;1.60;;;34.10;24.80;;;;;;5113601;28;20191;-78
2022/09/22 12:41:57;;;;;;;1.70;1.60;;;34.40;24.50;;;;;;5113397;28;20199;-78
2022/09/22 12:44:25;;;;;;;2.38;1.67;;;33.80;23.10;;;;;;5113637;28;20199;-77
2022/09/22 12:46:57;;;;;;;3.42;1.70;;;34.00;22.50;;;;;;5113731;28;20198;-78
2022/09/22 12:49:23;;;;;;;9.98;3.30;;;31.20;23.70;;;;;;5113256;28;20199;-79
2022/09/22 12:51:51;;;;;;;2.08;1.85;;;30.60;24.10;;;;;;5113452;28;20252;-78
2022/09/22 12:54:36;;;;;;;3.03;2.70;;;29.60;23.90;;;;;;5113328;28;20191;-77
2022/09/22 12:57:22;;;;;;;2.05;1.60;;;26.70;26.50;;;;;;5113554;28;20195;-77
2022/09/22 13:00:19;;;;;;;2.10;1.40;;;26.90;26.20;;;;;;5113482;28;20203;-78
2022/09/22 13:02:48;;;;;;;1.60;1.50;;;29.90;26.30;;;;;;5113174;28;20207;-77
2022/09/22 13:05:35;;;;;;;2.33;1.48;;;32.50;24.50;;;;;;5113362;28;20203;-78
2022/09/22 13:08:02;;;;;;;3.25;1.40;;;34.10;22.60;;;;;;5113062;28;20651;-78
2022/09/22 13:10:55;;;;;;;2.75;1.70;;;32.20;21.50;;;;;;5113062;28;20583;-79
2022/09/22 13:13:35;;;;;;;1.92;1.58;;;32.60;22.10;;;;;;5109856;28;20199;-79
2022/09/22 13:16:04;;;;;;;1.75;1.52;;;32.00;21.80;;;;;;5113273;28;20268;-77